Time;durP1;ratioP1;P1;durP2;ratioP2;P2;SDS_P1;SDS_P2;PMS_P1;PMS_P2;Temp;Humidity;BMP_temperature;BMP_pressure;BME280_temperature;BME280_humidity;BME280_pressure;Samples;Min_cycle;Max_cycle;Signal;HPM_P1;HPM_P2
2022/06/21 00:02:21;;;;;;;;;;;25.80;44.70;;;;;;5054806;28;19912;-73
2022/06/21 00:04:47;;;;;;;;;;;25.70;45.00;;;;;;5054576;28;20348;-71
2022/06/21 00:07:17;;;;;;;;;;;25.70;45.30;;;;;;5054431;28;20270;-71
2022/06/21 00:09:42;;;;;;;;;;;25.70;44.70;;;;;;5054675;28;19912;-70
2022/06/21 00:12:11;;;;;;;;;;;25.70;45.10;;;;;;5054607;28;19909;-70
2022/06/21 00:14:36;;;;;;;;;;;25.60;44.90;;;;;;5054357;28;19913;-70
2022/06/21 00:17:02;;;;;;;;;;;25.60;44.90;;;;;;5054476;28;19904;-70
2022/06/21 00:19:28;;;;;;;;;;;25.60;45.00;;;;;;5054404;28;19965;-69
2022/06/21 00:21:53;;;;;;;;;;;25.60;45.10;;;;;;5054519;28;19911;-70
2022/06/21 00:24:19;;;;;;;;;;;25.60;45.60;;;;;;5054430;28;20324;-70
2022/06/21 00:26:45;;;;;;;;;;;25.50;45.10;;;;;;5054279;28;19904;-70
2022/06/21 00:29:11;;;;;;;;;;;25.50;45.30;;;;;;5054348;28;19913;-71
2022/06/21 00:31:38;;;;;;;;;;;25.50;44.80;;;;;;5054368;28;19904;-70
2022/06/21 00:34:07;;;;;;;;;;;25.50;45.30;;;;;;5054051;28;20248;-70
2022/06/21 00:36:34;;;;;;;;;;;25.40;45.20;;;;;;5053882;28;19974;-70
2022/06/21 00:39:01;;;;;;;;;;;25.40;45.30;;;;;;5053998;28;19967;-69
2022/06/21 00:41:48;;;;;;;;;;;25.30;46.00;;;;;;5054115;28;19905;-70
2022/06/21 00:44:17;;;;;;;;;;;25.30;45.30;;;;;;5054005;28;19905;-68
2022/06/21 00:46:45;;;;;;;;;;;25.30;46.50;;;;;;5054042;28;19911;-70
2022/06/21 00:49:16;;;;;;;;;;;25.30;46.40;;;;;;5053900;28;19909;-70
2022/06/21 00:51:42;;;;;;;;;;;25.20;45.40;;;;;;5054093;28;20251;-69
2022/06/21 00:54:31;;;;;;;;;;;25.30;45.50;;;;;;5053910;28;19912;-70
2022/06/21 00:57:00;;;;;;;;;;;25.30;45.50;;;;;;5052713;28;19995;-70
2022/06/21 00:59:27;;;;;;;;;;;25.30;45.70;;;;;;5053582;28;19912;-70
2022/06/21 01:01:57;;;;;;;;;;;25.30;45.60;;;;;;5053381;28;19912;-70
2022/06/21 01:04:42;;;;;;;;;;;25.20;45.80;;;;;;5053848;28;19967;-70
2022/06/21 01:07:10;;;;;;;;;;;25.10;45.50;;;;;;5052677;28;19905;-69
2022/06/21 01:09:37;;;;;;;;;;;25.10;45.80;;;;;;5053887;28;19911;-69
2022/06/21 01:12:05;;;;;;;;;;;25.10;46.00;;;;;;5053860;28;19936;-70
2022/06/21 01:14:32;;;;;;;;;;;25.10;45.90;;;;;;5053721;28;19942;-70
2022/06/21 01:16:58;;;;;;;;;;;25.10;45.70;;;;;;5053643;28;19912;-68
2022/06/21 01:19:43;;;;;;;;;;;25.10;45.60;;;;;;5053810;28;19928;-69
2022/06/21 01:22:20;;;;;;;;;;;25.10;45.60;;;;;;5033563;28;19995;-71
2022/06/21 01:25:08;;;;;;;;;;;25.10;46.80;;;;;;5035596;28;20267;-70
2022/06/21 01:27:34;;;;;;;;;;;25.10;45.80;;;;;;5036316;28;20012;-70
2022/06/21 01:30:01;;;;;;;;;;;25.20;45.80;;;;;;5037763;28;20378;-70
2022/06/21 01:32:26;;;;;;;;;;;25.20;45.90;;;;;;5037652;28;20366;-69
2022/06/21 01:34:53;;;;;;;;;;;25.10;46.00;;;;;;5036080;28;19913;-70
2022/06/21 01:37:20;;;;;;;;;;;25.10;46.60;;;;;;5037048;28;19928;-70
2022/06/21 01:39:52;;;;;;;;;;;25.00;46.10;;;;;;5037518;28;20295;-69
2022/06/21 01:42:21;;;;;;;;;;;25.00;46.20;;;;;;5037544;28;19959;-70
2022/06/21 01:44:49;;;;;;;;;;;25.00;46.10;;;;;;5037240;28;19911;-69
2022/06/21 01:47:17;;;;;;;;;;;25.00;46.20;;;;;;5037463;28;19913;-70
2022/06/21 01:49:49;;;;;;;;;;;25.00;46.80;;;;;;5037396;28;19928;-70
2022/06/21 01:52:17;;;;;;;;;;;25.00;46.20;;;;;;5037352;28;20003;-70
2022/06/21 01:54:45;;;;;;;;;;;25.00;46.30;;;;;;5037096;28;19913;-69
2022/06/21 01:57:12;;;;;;;;;;;25.00;46.30;;;;;;5036928;28;19913;-70
2022/06/21 01:59:39;;;;;;;;;;;25.00;46.30;;;;;;5036895;28;19959;-70
2022/06/21 02:02:10;;;;;;;;;;;25.00;46.40;;;;;;5037512;28;19905;-70
2022/06/21 02:04:40;;;;;;;;;;;24.90;46.80;;;;;;5037143;28;19909;-70
2022/06/21 02:07:07;;;;;;;;;;;25.00;46.60;;;;;;5037049;28;19932;-68
2022/06/21 02:09:44;;;;;;;;;;;24.90;46.30;;;;;;5037141;28;19909;-70
2022/06/21 02:12:11;;;;;;;;;;;24.90;46.30;;;;;;5036860;28;19959;-70
2022/06/21 02:14:38;;;;;;;;;;;25.00;46.50;;;;;;5036609;28;19913;-70
2022/06/21 02:17:10;;;;;;;;;;;25.00;46.20;;;;;;5037025;28;19908;-70
2022/06/21 02:19:42;;;;;;;;;;;25.00;46.70;;;;;;5037086;28;19905;-70
2022/06/21 02:22:12;;;;;;;;;;;25.00;46.70;;;;;;5036659;28;19912;-70
2022/06/21 02:24:37;;;;;;;;;;;25.00;46.60;;;;;;5036659;28;19905;-68
2022/06/21 02:27:04;;;;;;;;;;;25.00;46.70;;;;;;5035138;28;19924;-70
2022/06/21 02:29:30;;;;;;;;;;;25.00;46.60;;;;;;5037125;28;19916;-70
2022/06/21 02:31:56;;;;;;;;;;;25.00;46.90;;;;;;5036474;28;19905;-70
2022/06/21 02:34:25;;;;;;;;;;;25.00;46.70;;;;;;5036388;28;19917;-70
2022/06/21 02:36:53;;;;;;;;;;;25.00;46.70;;;;;;5035268;28;19905;-70
2022/06/21 02:39:20;;;;;;;;;;;25.00;46.70;;;;;;5036443;28;19960;-70
2022/06/21 02:41:48;;;;;;;;;;;25.00;46.50;;;;;;5036418;28;19905;-70
2022/06/21 02:44:47;;;;;;;;;;;25.00;47.40;;;;;;5036084;28;19927;-70
2022/06/21 02:47:14;;;;;;;;;;;25.00;48.00;;;;;;5034750;28;20393;-71
2022/06/21 02:49:46;;;;;;;;;;;24.90;46.70;;;;;;5035889;28;19905;-70
2022/06/21 02:52:32;;;;;;;;;;;25.00;47.00;;;;;;5036159;28;19905;-70
2022/06/21 02:55:06;;;;;;;;;;;25.00;47.00;;;;;;5036087;28;19913;-70
2022/06/21 02:57:41;;;;;;;;;;;24.90;47.00;;;;;;5043920;28;19966;-69
2022/06/21 03:00:12;;;;;;;;;;;24.90;47.30;;;;;;5043224;28;19909;-71
2022/06/21 03:02:38;;;;;;;;;;;24.90;46.80;;;;;;5039719;28;19909;-73
2022/06/21 03:05:05;;;;;;;;;;;24.90;47.00;;;;;;5036132;28;20405;-71
2022/06/21 03:07:32;;;;;;;;;;;25.00;46.90;;;;;;5040527;28;19905;-71
2022/06/21 03:09:58;;;;;;;;;;;25.00;46.70;;;;;;5035779;28;20005;-70
2022/06/21 03:12:30;;;;;;;;;;;25.00;47.10;;;;;;5039247;28;20422;-70
2022/06/21 03:15:02;;;;;;;;;;;25.00;47.00;;;;;;5034893;28;20393;-70
2022/06/21 03:17:34;;;;;;;;;;;25.00;47.00;;;;;;5034389;28;20355;-69
2022/06/21 03:20:00;;;;;;;;;;;25.00;46.80;;;;;;5036086;28;20331;-71
2022/06/21 03:22:27;;;;;;;;;;;25.00;46.90;;;;;;5042270;28;20364;-70
2022/06/21 03:24:54;;;;;;;;;;;25.00;47.00;;;;;;5038225;28;19909;-71
2022/06/21 03:27:47;;;;;;;;;;;25.00;47.10;;;;;;5035095;28;19921;-70
2022/06/21 03:30:13;;;;;;;;;;;25.00;47.10;;;;;;5042373;28;19913;-70
2022/06/21 03:32:38;;;;;;;;;;;25.10;47.10;;;;;;5035474;28;19991;-68
2022/06/21 03:35:05;;;;;;;;;;;25.10;47.20;;;;;;5034271;28;20274;-67
2022/06/21 03:37:30;;;;;;;;;;;25.10;47.50;;;;;;5032745;28;19916;-71
2022/06/21 03:42:43;;;;;;;;;;;25.10;47.10;;;;;;5054120;28;20154;-71
2022/06/21 03:45:21;;;;;;;;;;;25.10;47.50;;;;;;5053930;28;19912;-71
2022/06/21 03:48:09;;;;;;;;;;;25.10;47.30;;;;;;5044712;28;19909;-70
2022/06/21 03:50:38;;;;;;;;;;;25.10;47.10;;;;;;5036090;28;19909;-71
2022/06/21 03:53:17;;;;;;;;;;;25.10;47.10;;;;;;5032341;28;19905;-72
2022/06/21 03:55:50;;;;;;;;;;;25.20;47.00;;;;;;5033743;28;19912;-71
2022/06/21 03:58:21;;;;;;;;;;;25.20;47.40;;;;;;5033935;28;19987;-72
2022/06/21 04:00:47;;;;;;;;;;;25.10;47.00;;;;;;5036513;28;19912;-73
2022/06/21 04:03:28;;;;;;;;;;;25.20;47.30;;;;;;5043387;28;19908;-72
2022/06/21 04:06:11;;;;;;;;;;;25.20;47.20;;;;;;5042464;28;19991;-71
2022/06/21 04:08:41;;;;;;;;;;;25.20;47.10;;;;;;5045428;28;19909;-70
2022/06/21 04:11:10;;;;;;;;;;;25.20;47.10;;;;;;5052926;28;19905;-73
2022/06/21 04:13:39;;;;;;;;;;;25.30;47.50;;;;;;5052406;28;19950;-72
2022/06/21 04:16:13;;;;;;;;;;;25.30;47.10;;;;;;5043451;28;19911;-73
2022/06/21 04:18:44;;;;;;;;;;;25.30;47.10;;;;;;5042668;28;20011;-71
2022/06/21 04:21:14;;;;;;;;;;;25.40;47.00;;;;;;5041528;28;19905;-72
2022/06/21 04:23:42;;;;;;;;;;;25.40;47.30;;;;;;5041997;28;19905;-73
2022/06/21 04:26:11;;;;;;;;;;;25.40;47.00;;;;;;5048225;28;19911;-75
2022/06/21 04:28:39;;;;;;;;;;;25.40;47.20;;;;;;5032851;28;19971;-71
2022/06/21 04:31:08;;;;;;;;;;;25.40;47.00;;;;;;5032526;28;20038;-74
2022/06/21 04:33:36;;;;;;;;;;;25.40;47.20;;;;;;5033620;28;19966;-74
2022/06/21 04:36:08;;;;;;;;;;;25.50;47.40;;;;;;5033551;28;19928;-73
2022/06/21 04:38:43;;;;;;;;;;;25.50;47.30;;;;;;5041159;28;19943;-74
2022/06/21 04:41:11;;;;;;;;;;;25.50;47.60;;;;;;5041127;28;19958;-74
2022/06/21 04:43:40;;;;;;;;;;;25.50;47.40;;;;;;5042333;28;19927;-72
2022/06/21 04:46:10;;;;;;;;;;;25.50;47.80;;;;;;5043559;28;19915;-75
2022/06/21 04:48:38;;;;;;;;;;;25.50;47.20;;;;;;5040968;28;20267;-75
2022/06/21 04:51:07;;;;;;;;;;;25.50;47.40;;;;;;5041736;28;19904;-76
2022/06/21 04:53:35;;;;;;;;;;;25.50;47.70;;;;;;5049207;28;19919;-75
2022/06/21 04:56:19;;;;;;;;;;;25.50;47.30;;;;;;5041602;28;20248;-74
2022/06/21 04:58:46;;;;;;;;;;;25.50;47.50;;;;;;5034857;28;19912;-74
2022/06/21 05:01:30;;;;;;;;;;;25.50;47.30;;;;;;5033695;28;19905;-75
2022/06/21 05:04:01;;;;;;;;;;;25.50;47.50;;;;;;5034703;28;19912;-73
2022/06/21 05:06:27;;;;;;;;;;;25.50;47.60;;;;;;5047404;28;19904;-74
2022/06/21 05:08:53;;;;;;;;;;;25.60;47.60;;;;;;5049818;28;20378;-74
2022/06/21 05:11:20;;;;;;;;;;;25.60;47.30;;;;;;5046528;28;20296;-75
2022/06/21 05:13:48;;;;;;;;;;;25.60;47.40;;;;;;5042685;28;20011;-75
2022/06/21 05:16:16;;;;;;;;;;;25.60;47.40;;;;;;5041993;28;19936;-72
2022/06/21 05:18:43;;;;;;;;;;;25.70;47.30;;;;;;5045713;28;19916;-74
2022/06/21 05:21:12;;;;;;;;;;;25.70;47.70;;;;;;5040775;28;19974;-75
2022/06/21 05:23:37;;;;;;;;;;;25.70;47.50;;;;;;5039984;28;20632;-73
2022/06/21 05:26:06;;;;;;;;;;;25.70;47.30;;;;;;5031663;28;19917;-73
2022/06/21 05:28:34;;;;;;;;;;;25.80;47.40;;;;;;5032833;28;19948;-72
2022/06/21 05:31:07;;;;;;;;;;;25.80;47.50;;;;;;5040243;28;19909;-71
2022/06/21 05:33:35;;;;;;;;;;;25.80;47.40;;;;;;5052921;28;20310;-71
2022/06/21 05:36:07;;;;;;;;;;;25.80;47.40;;;;;;5047443;28;20418;-71
2022/06/21 05:38:35;;;;;;;;;;;25.80;47.30;;;;;;5032471;28;20268;-71
2022/06/21 05:41:29;;;;;;;;;;;25.80;47.20;;;;;;5032201;28;19981;-71
2022/06/21 05:44:00;;;;;;;;;;;25.90;47.40;;;;;;5033604;28;20253;-71
2022/06/21 05:46:25;;;;;;;;;;;25.90;47.30;;;;;;5032407;28;19905;-71
2022/06/21 05:48:53;;;;;;;;;;;25.90;47.20;;;;;;5033343;28;20423;-70
2022/06/21 05:51:26;;;;;;;;;;;25.90;47.10;;;;;;5033528;28;19905;-71
2022/06/21 05:53:58;;;;;;;;;;;25.90;47.40;;;;;;5031866;28;19924;-73
2022/06/21 05:56:25;;;;;;;;;;;26.00;47.50;;;;;;5033536;28;19909;-71
2022/06/21 05:58:57;;;;;;;;;;;26.00;47.50;;;;;;5033534;28;19905;-71
2022/06/21 06:01:27;;;;;;;;;;;26.00;47.80;;;;;;5033495;28;19905;-71
2022/06/21 06:03:52;;;;;;;;;;;26.00;47.20;;;;;;5033272;28;20347;-71
2022/06/21 06:06:19;;;;;;;;;;;26.00;47.00;;;;;;5033334;28;19912;-71
2022/06/21 06:08:46;;;;;;;;;;;26.00;46.90;;;;;;5033384;28;19905;-74
2022/06/21 06:11:18;;;;;;;;;;;26.00;46.80;;;;;;5035563;28;19912;-70
2022/06/21 06:13:45;;;;;;;;;;;26.10;46.70;;;;;;5036697;28;19984;-72
2022/06/21 06:16:25;;;;;;;;;;;26.10;46.60;;;;;;5036897;28;19917;-71
2022/06/21 06:19:00;;;;;;;;;;;26.10;46.60;;;;;;5037149;28;19908;-71
2022/06/21 06:21:30;;;;;;;;;;;26.10;46.40;;;;;;5036416;28;19905;-72
2022/06/21 06:24:00;;;;;;;;;;;26.10;46.10;;;;;;5036436;28;19905;-72
2022/06/21 06:26:27;;;;;;;;;;;26.20;46.10;;;;;;5036873;28;19905;-71
2022/06/21 06:28:57;;;;;;;;;;;26.10;46.00;;;;;;5034784;28;20367;-73
2022/06/21 06:31:29;;;;;;;;;;;26.10;46.00;;;;;;5036810;28;19905;-71
2022/06/21 06:33:59;;;;;;;;;;;26.20;45.90;;;;;;5036168;28;19913;-71
2022/06/21 06:36:27;;;;;;;;;;;26.20;45.80;;;;;;5034890;28;19952;-71
2022/06/21 06:38:54;;;;;;;;;;;26.20;45.80;;;;;;5036075;28;19984;-71
2022/06/21 06:41:31;;;;;;;;;;;26.20;45.70;;;;;;5036402;28;19913;-71
2022/06/21 06:44:05;;;;;;;;;;;26.20;45.30;;;;;;5036331;28;19912;-72
2022/06/21 06:46:32;;;;;;;;;;;26.20;45.50;;;;;;5036317;28;19931;-69
2022/06/21 06:49:18;;;;;;;;;;;26.30;45.50;;;;;;5035957;28;19905;-71
2022/06/21 06:51:46;;;;;;;;;;;26.30;45.50;;;;;;5035901;28;19937;-71
2022/06/21 06:54:15;;;;;;;;;;;26.30;45.30;;;;;;5035937;28;19913;-71
2022/06/21 06:56:52;;;;;;;;;;;26.30;45.30;;;;;;5035820;28;20355;-71
2022/06/21 06:59:20;;;;;;;;;;;26.40;45.30;;;;;;5036089;28;19905;-71
2022/06/21 07:01:50;;;;;;;;;;;26.40;45.30;;;;;;5035631;28;19905;-70
2022/06/21 07:04:17;;;;;;;;;;;26.40;45.30;;;;;;5035895;28;19909;-71
2022/06/21 07:06:52;;;;;;;;;;;26.40;45.10;;;;;;5034958;28;19905;-74
2022/06/21 07:09:21;;;;;;;;;;;26.40;44.80;;;;;;5035975;28;19912;-72
2022/06/21 07:11:50;;;;;;;;;;;26.40;44.60;;;;;;5035504;28;20000;-72
2022/06/21 07:14:19;;;;;;;;;;;26.50;44.80;;;;;;5035586;28;20267;-70
2022/06/21 07:16:47;;;;;;;;;;;26.50;44.80;;;;;;5035644;28;19959;-71
2022/06/21 07:19:12;;;;;;;;;;;26.50;44.90;;;;;;5035589;28;20421;-70
2022/06/21 07:21:38;;;;;;;;;;;26.50;44.90;;;;;;5034811;28;19905;-70
2022/06/21 07:24:08;;;;;;;;;;;26.50;44.70;;;;;;5035410;28;19911;-71
2022/06/21 07:26:40;;;;;;;;;;;26.50;44.70;;;;;;5035546;28;19905;-71
2022/06/21 07:29:18;;;;;;;;;;;26.60;44.70;;;;;;5035745;28;19909;-71
2022/06/21 07:31:49;;;;;;;;;;;26.60;44.70;;;;;;5035506;28;20252;-71
2022/06/21 07:34:22;;;;;;;;;;;26.60;44.70;;;;;;5035375;28;19917;-70
2022/06/21 07:36:51;;;;;;;;;;;26.60;44.70;;;;;;5035644;28;19916;-71
2022/06/21 07:39:17;;;;;;;;;;;26.70;44.70;;;;;;5035248;28;19905;-71
2022/06/21 07:41:50;;;;;;;;;;;26.70;43.90;;;;;;5034932;28;20371;-71
2022/06/21 07:44:38;;;;;;;;;;;26.70;44.40;;;;;;5035224;28;19905;-71
2022/06/21 07:47:08;;;;;;;;;;;26.70;44.10;;;;;;5035258;28;19912;-71
2022/06/21 07:49:38;;;;;;;;;;;26.70;43.50;;;;;;5035455;28;19905;-71
2022/06/21 07:52:06;;;;;;;;;;;26.70;42.80;;;;;;5035383;28;19905;-71
2022/06/21 07:54:35;;;;;;;;;;;26.70;43.50;;;;;;5034898;28;20095;-70
2022/06/21 07:57:03;;;;;;;;;;;26.80;42.70;;;;;;5034313;28;19915;-72
2022/06/21 07:59:43;;;;;;;;;;;26.80;42.80;;;;;;5035177;28;19905;-71
2022/06/21 08:08:00;;;;;;;;;;;26.50;40.90;;;;;;5034657;28;19971;-73
2022/06/21 08:10:47;;;;;;;;;;;26.80;42.00;;;;;;5034364;28;20252;-71
2022/06/21 08:13:13;;;;;;;;;;;26.90;42.70;;;;;;5033779;28;20364;-71
2022/06/21 08:15:42;;;;;;;;;;;26.90;41.20;;;;;;5034472;28;20259;-72
2022/06/21 08:18:21;;;;;;;;;;;26.90;41.40;;;;;;5034617;28;20002;-72
2022/06/21 08:20:57;;;;;;;;;;;27.00;41.00;;;;;;5034339;28;20000;-71
2022/06/21 08:23:37;;;;;;;;;;;27.00;40.00;;;;;;5035260;28;19927;-71
2022/06/21 08:26:10;;;;;;;;;;;27.00;41.50;;;;;;5033002;28;19909;-71
2022/06/21 08:28:36;;;;;;;;;;;27.00;40.80;;;;;;5034282;28;20387;-71
2022/06/21 08:31:23;;;;;;;;;;;27.10;41.40;;;;;;5034051;28;19912;-71
2022/06/21 08:33:53;;;;;;;;;;;27.10;40.40;;;;;;5033199;28;19913;-71
2022/06/21 08:36:22;;;;;;;;;;;27.10;40.40;;;;;;5038385;28;20270;-72
2022/06/21 08:38:56;;;;;;;;;;;27.10;41.70;;;;;;5054035;28;19905;-72
2022/06/21 08:44:29;;;;;;;;;;;27.10;41.00;;;;;;5053910;28;19915;-72
2022/06/21 08:47:13;;;;;;;;;;;27.10;41.30;;;;;;5052586;28;19905;-71
2022/06/21 08:49:44;;;;;;;;;;;27.20;41.30;;;;;;5054038;28;19908;-72
2022/06/21 08:52:10;;;;;;;;;;;27.20;40.70;;;;;;5053642;28;19958;-72
2022/06/21 08:54:35;;;;;;;;;;;27.20;41.00;;;;;;5053663;28;19909;-72
2022/06/21 08:57:20;;;;;;;;;;;27.20;41.10;;;;;;5052776;28;20086;-72
2022/06/21 08:59:45;;;;;;;;;;;27.20;41.10;;;;;;5053962;28;19988;-72
2022/06/21 09:02:11;;;;;;;;;;;27.20;40.80;;;;;;5054256;28;19950;-71
2022/06/21 09:04:39;;;;;;;;;;;27.20;40.60;;;;;;5053605;28;19988;-71
2022/06/21 09:07:28;;;;;;;;;;;27.20;39.80;;;;;;5053628;28;19999;-71
2022/06/21 09:10:17;;;;;;;;;;;27.30;39.20;;;;;;5049937;28;19905;-72
2022/06/21 09:12:48;;;;;;;;;;;27.30;39.40;;;;;;5052684;28;19940;-72
2022/06/21 09:15:22;;;;;;;;;;;27.30;39.10;;;;;;5053437;28;19913;-72
2022/06/21 09:18:06;;;;;;;;;;;27.30;38.80;;;;;;5053853;28;19953;-71
2022/06/21 09:20:50;;;;;;;;;;;27.40;39.50;;;;;;5053677;28;19905;-72
2022/06/21 09:23:46;;;;;;;;;;;27.40;39.70;;;;;;5053516;28;20347;-72
2022/06/21 09:26:35;;;;;;;;;;;27.40;39.50;;;;;;5052806;28;19909;-72
2022/06/21 09:29:06;;;;;;;;;;;27.40;38.70;;;;;;5052734;28;19927;-73
2022/06/21 09:31:38;;;;;;;;;;;27.40;39.70;;;;;;5053656;28;19948;-72
2022/06/21 09:34:06;;;;;;;;;;;27.40;39.70;;;;;;5053166;28;20320;-73
2022/06/21 09:36:35;;;;;;;;;;;27.40;39.90;;;;;;5053162;28;19916;-72
2022/06/21 09:39:06;;;;;;;;;;;27.50;39.30;;;;;;5053352;28;19905;-72
2022/06/21 09:41:54;;;;;;;;;;;27.50;39.80;;;;;;5053523;28;19908;-73
2022/06/21 09:44:20;;;;;;;;;;;27.50;40.00;;;;;;5052053;28;19954;-72
2022/06/21 09:46:52;;;;;;;;;;;27.50;40.00;;;;;;5057199;28;20321;-72
2022/06/21 09:49:18;;;;;;;;;;;27.50;40.20;;;;;;5056989;28;20347;-72
2022/06/21 09:51:50;;;;;;;;;;;27.50;39.80;;;;;;5057339;28;19905;-72
2022/06/21 09:54:36;;;;;;;;;;;27.60;40.10;;;;;;5055627;28;19931;-72
2022/06/21 09:57:14;;;;;;;;;;;27.60;40.00;;;;;;5056771;28;19909;-72
2022/06/21 09:59:52;;;;;;;;;;;27.60;40.00;;;;;;5056743;28;20283;-72
2022/06/21 10:02:18;;;;;;;;;;;27.60;39.70;;;;;;5056749;28;20011;-71
2022/06/21 10:04:52;;;;;;;;;;;27.70;39.90;;;;;;5057032;28;20347;-72
2022/06/21 10:07:21;;;;;;;;;;;27.60;39.70;;;;;;5056985;28;19996;-73
2022/06/21 10:10:06;;;;;;;;;;;27.60;39.50;;;;;;5056558;28;19905;-71
2022/06/21 10:12:35;;;;;;;;;;;27.60;39.40;;;;;;5055657;28;20419;-71
2022/06/21 10:15:06;;;;;;;;;;;27.70;39.70;;;;;;5056926;28;19909;-72
2022/06/21 10:17:50;;;;;;;;;;;27.70;39.70;;;;;;5056478;28;19919;-71
2022/06/21 10:20:34;;;;;;;;;;;27.70;39.40;;;;;;5056703;28;19911;-71
2022/06/21 10:23:24;;;;;;;;;;;27.80;39.80;;;;;;5056751;28;19904;-72
2022/06/21 10:25:53;;;;;;;;;;;27.80;39.50;;;;;;5056326;28;20351;-66
2022/06/21 10:28:37;;;;;;;;;;;27.80;37.80;;;;;;5056612;28;20274;-68
2022/06/21 10:31:21;;;;;;;;;;;27.80;38.20;;;;;;5056346;28;20408;-65
2022/06/21 10:33:55;;;;;;;;;;;27.80;38.30;;;;;;5055015;28;19915;-66
2022/06/21 10:36:30;;;;;;;;;;;27.80;37.80;;;;;;5056311;28;20282;-66
2022/06/21 10:39:06;;;;;;;;;;;27.90;37.30;;;;;;5056371;28;19912;-66
2022/06/21 10:41:39;;;;;;;;;;;27.90;37.90;;;;;;5056601;28;19904;-67
2022/06/21 10:44:07;;;;;;;;;;;27.90;37.90;;;;;;5056330;28;19905;-67
2022/06/21 10:46:37;;;;;;;;;;;27.90;38.00;;;;;;5056163;28;19905;-65
2022/06/21 10:49:22;;;;;;;;;;;28.00;38.50;;;;;;5055827;28;20002;-67
2022/06/21 10:52:06;;;;;;;;;;;28.00;38.80;;;;;;5055734;28;20334;-67
2022/06/21 10:54:34;;;;;;;;;;;28.00;38.80;;;;;;5055943;28;19956;-68
2022/06/21 10:57:14;;;;;;;;;;;28.00;38.70;;;;;;5054831;28;19923;-66
2022/06/21 11:02:34;;;;;;;;;;;28.00;38.20;;;;;;5055771;28;19959;-67
2022/06/21 11:05:08;;;;;;;;;;;28.10;38.20;;;;;;5055870;28;20267;-66
2022/06/21 11:07:40;;;;;;;;;;;28.10;39.10;;;;;;5054596;28;19904;-67
2022/06/21 11:10:12;;;;;;;;;;;28.10;38.90;;;;;;5055606;28;19984;-67
2022/06/21 11:12:53;;;;;;;;;;;28.10;38.50;;;;;;5055799;28;19959;-66
2022/06/21 11:15:37;;;;;;;;;;;28.10;38.80;;;;;;5054352;28;19908;-65
2022/06/21 11:18:10;;;;;;;;;;;28.20;39.00;;;;;;5055355;28;19915;-66
2022/06/21 11:20:45;;;;;;;;;;;28.20;38.90;;;;;;5054736;28;20259;-66
2022/06/21 11:23:24;;;;;;;;;;;28.20;39.10;;;;;;5055403;28;19905;-68
2022/06/21 11:25:57;;;;;;;;;;;28.20;39.10;;;;;;5055852;28;19909;-66
2022/06/21 11:28:27;;;;;;;;;;;28.20;39.40;;;;;;5055062;28;19927;-66
2022/06/21 11:31:11;;;;;;;;;;;28.30;39.20;;;;;;5055549;28;19905;-66
2022/06/21 11:33:55;;;;;;;;;;;28.30;39.20;;;;;;5054942;28;19904;-66
2022/06/21 11:36:27;;;;;;;;;;;28.40;39.50;;;;;;5055108;28;19909;-65
2022/06/21 11:38:56;;;;;;;;;;;28.40;39.30;;;;;;5054829;28;19905;-69
2022/06/21 11:44:32;;;;;;;;;;;28.40;39.40;;;;;;5055239;28;19955;-67
2022/06/21 11:47:08;;;;;;;;;;;28.40;39.60;;;;;;5054837;28;19958;-66
2022/06/21 11:49:47;;;;;;;;;;;28.40;39.60;;;;;;5054721;28;19904;-70
2022/06/21 11:52:22;;;;;;;;;;;28.50;39.80;;;;;;5054930;28;19911;-67
2022/06/21 11:54:54;;;;;;;;;;;28.50;39.90;;;;;;5054746;28;20310;-67
2022/06/21 11:57:22;;;;;;;;;;;28.50;39.80;;;;;;5054560;28;20007;-67
2022/06/21 11:59:57;;;;;;;;;;;28.50;39.90;;;;;;5054537;28;19940;-67
2022/06/21 12:02:32;;;;;;;;;;;28.50;40.00;;;;;;5054949;28;19905;-67
2022/06/21 12:04:57;;;;;;;;;;;28.50;40.10;;;;;;5054903;28;20347;-67
2022/06/21 12:07:26;;;;;;;;;;;28.60;40.20;;;;;;5054775;28;19912;-65
2022/06/21 12:09:57;;;;;;;;;;;28.60;40.10;;;;;;5053335;28;20404;-67
2022/06/21 12:12:26;;;;;;;;;;;28.70;40.00;;;;;;5053720;28;19904;-66
2022/06/21 12:15:07;;;;;;;;;;;28.80;40.30;;;;;;5054468;28;20385;-67
2022/06/21 12:17:38;;;;;;;;;;;29.00;40.30;;;;;;5054348;28;19909;-68
2022/06/21 12:20:11;;;;;;;;;;;29.10;40.40;;;;;;5054563;28;19905;-68
2022/06/21 12:22:40;;;;;;;;;;;29.20;39.90;;;;;;5052873;28;19909;-69
2022/06/21 12:25:10;;;;;;;;;;;29.40;39.90;;;;;;5054828;28;20351;-68
2022/06/21 12:27:36;;;;;;;;;;;29.50;39.90;;;;;;5054423;28;19921;-68
2022/06/21 12:30:06;;;;;;;;;;;29.60;39.70;;;;;;5053929;28;19916;-67
2022/06/21 12:32:32;;;;;;;;;;;29.60;39.70;;;;;;5054138;28;19909;-67
2022/06/21 12:35:11;;;;;;;;;;;29.70;39.70;;;;;;5053870;28;19908;-68
2022/06/21 12:37:40;;;;;;;;;;;29.70;39.50;;;;;;5053803;28;19909;-67
2022/06/21 12:40:29;;;;;;;;;;;29.70;39.50;;;;;;5054250;28;19909;-68
2022/06/21 12:42:54;;;;;;;;;;;29.70;39.20;;;;;;5053951;28;19912;-68
2022/06/21 12:45:39;;;;;;;;;;;29.80;39.50;;;;;;5054073;28;20370;-68
2022/06/21 12:48:18;;;;;;;;;;;29.80;39.20;;;;;;5054116;28;19958;-69
2022/06/21 12:50:46;;;;;;;;;;;29.80;39.20;;;;;;5053706;28;20418;-68
2022/06/21 12:53:12;;;;;;;;;;;29.90;39.30;;;;;;5053893;28;19916;-68
2022/06/21 12:55:56;;;;;;;;;;;29.90;39.40;;;;;;5052430;28;19908;-68
2022/06/21 12:58:31;;;;;;;;;;;30.00;39.70;;;;;;5053769;28;19909;-68
2022/06/21 13:00:58;;;;;;;;;;;30.00;39.40;;;;;;5054001;28;19904;-68
2022/06/21 13:03:37;;;;;;;;;;;30.20;39.60;;;;;;5052581;28;19904;-68
2022/06/21 13:06:12;;;;;;;;;;;30.20;39.30;;;;;;5053878;28;19912;-71
2022/06/21 13:08:37;;;;;;;;;;;30.40;39.70;;;;;;5053882;28;19905;-72
2022/06/21 13:11:08;;;;;;;;;;;30.50;39.80;;;;;;5053867;28;19911;-72
2022/06/21 13:13:45;;;;;;;;;;;30.70;39.70;;;;;;5054122;28;19904;-70
2022/06/21 13:16:27;;;;;;;;;;;30.80;39.40;;;;;;5053982;28;20007;-71
2022/06/21 13:18:53;;;;;;;;;;;30.80;39.40;;;;;;5053814;28;19905;-73
2022/06/21 13:21:24;;;;;;;;;;;30.80;39.70;;;;;;5056710;28;19911;-67
2022/06/21 13:23:50;;;;;;;;;;;30.70;40.10;;;;;;5057052;28;19904;-72
2022/06/21 13:26:28;;;;;;;;;;;30.60;39.90;;;;;;5057602;28;19995;-75
2022/06/21 13:29:09;;;;;;;;;;;30.40;42.40;;;;;;5056443;28;19971;-72
2022/06/21 13:31:39;;;;;;;;;;;30.30;47.00;;;;;;5058060;28;19905;-71
2022/06/21 13:34:24;;;;;;;;;;;30.00;48.70;;;;;;5057469;28;19915;-73
2022/06/21 13:36:50;;;;;;;;;;;29.90;50.20;;;;;;5057401;28;19908;-72
2022/06/21 13:39:34;;;;;;;;;;;29.70;47.70;;;;;;5057358;28;19905;-72
2022/06/21 13:42:38;;;;;;;;;;;29.60;50.30;;;;;;5057163;28;19909;-72
2022/06/21 13:45:12;;;;;;;;;;;29.40;50.00;;;;;;5055113;28;19986;-73
2022/06/21 13:47:56;;;;;;;;;;;29.50;51.10;;;;;;5054965;28;19912;-73
2022/06/21 13:50:22;;;;;;;;;;;29.80;50.60;;;;;;5056676;28;19909;-73
2022/06/21 13:52:52;;;;;;;;;;;30.30;50.40;;;;;;5056962;28;20003;-72
2022/06/21 13:55:23;;;;;;;;;;;30.70;50.30;;;;;;5056013;28;20359;-72
2022/06/21 13:57:54;;;;;;;;;;;31.10;49.50;;;;;;5056934;28;20055;-71
2022/06/21 14:00:26;;;;;;;;;;;31.60;49.30;;;;;;5056847;28;19957;-72
2022/06/21 14:03:06;;;;;;;;;;;32.00;48.40;;;;;;5056716;28;19909;-73
2022/06/21 14:05:38;;;;;;;;;;;32.30;47.60;;;;;;5056813;28;20003;-72
2022/06/21 14:08:12;;;;;;;;;;;32.70;47.40;;;;;;5057167;28;19905;-72
2022/06/21 14:10:37;;;;;;;;;;;33.00;47.00;;;;;;5056886;28;20000;-72
2022/06/21 14:13:06;;;;;;;;;;;33.10;46.70;;;;;;5056648;28;19912;-72
2022/06/21 14:15:49;;;;;;;;;;;33.00;46.40;;;;;;5056920;28;19909;-71
2022/06/21 14:18:18;;;;;;;;;;;32.60;47.40;;;;;;5056814;28;19916;-71
2022/06/21 14:20:44;;;;;;;;;;;32.10;47.70;;;;;;5055453;28;19975;-73
2022/06/21 14:23:15;;;;;;;;;;;31.80;48.00;;;;;;5056764;28;20404;-72
2022/06/21 14:25:41;;;;;;;;;;;31.40;48.30;;;;;;5056526;28;19908;-72
2022/06/21 14:28:08;;;;;;;;;;;30.90;49.40;;;;;;5056358;28;19974;-71
2022/06/21 14:30:33;;;;;;;;;;;30.40;49.40;;;;;;5056492;28;19909;-72
2022/06/21 14:33:02;;;;;;;;;;;29.80;53.00;;;;;;5056349;28;20099;-72
2022/06/21 14:35:31;;;;;;;;;;;29.30;53.00;;;;;;5056214;28;19909;-71
2022/06/21 14:38:02;;;;;;;;;;;28.70;56.30;;;;;;5056072;28;19916;-71
2022/06/21 14:40:31;;;;;;;;;;;28.30;55.80;;;;;;5056189;28;20004;-71
2022/06/21 14:43:00;;;;;;;;;;;27.90;56.70;;;;;;5056052;28;19955;-71
2022/06/21 14:45:44;;;;;;;;;;;27.70;58.20;;;;;;5054541;28;19983;-71
2022/06/21 14:48:25;;;;;;;;;;;27.40;57.30;;;;;;5055573;28;19905;-71
2022/06/21 14:50:56;;;;;;;;;;;27.20;57.70;;;;;;5055944;28;19905;-71
2022/06/21 14:53:22;;;;;;;;;;;26.90;59.20;;;;;;5054563;28;20003;-71
2022/06/21 14:55:59;;;;;;;;;;;26.70;58.50;;;;;;5055950;28;20003;-72
2022/06/21 14:58:43;;;;;;;;;;;26.50;59.80;;;;;;5055884;28;19931;-72
2022/06/21 15:01:24;;;;;;;;;;;26.30;60.00;;;;;;5055616;28;20008;-72
2022/06/21 15:03:52;;;;;;;;;;;26.10;58.30;;;;;;5056216;28;20398;-71